Time;durP1;ratioP1;P1;durP2;ratioP2;P2;SDS_P1;SDS_P2;PMS_P1;PMS_P2;Temp;Humidity;BMP_temperature;BMP_pressure;BME280_temperature;BME280_humidity;BME280_pressure;Samples;Min_cycle;Max_cycle;Signal;HPM_P1;HPM_P2
2023/10/14 00:00:25;;;;;;;15.00;7.30;;;;;;;16.12;91.45;99611.44;107630;276;120621;-57
2023/10/14 00:03:27;;;;;;;9.50;6.10;;;;;;;16.08;91.50;99610.05;107652;276;104570;-59
2023/10/14 00:06:07;;;;;;;11.00;6.70;;;;;;;16.07;91.50;99607.16;107680;276;114075;-62
2023/10/14 00:08:54;;;;;;;12.70;6.80;;;;;;;16.07;91.62;99602.63;107659;276;95429;-61
2023/10/14 00:11:33;;;;;;;11.00;7.40;;;;;;;16.07;91.56;99602.73;107687;276;97444;-61
2023/10/14 00:14:18;;;;;;;10.90;6.70;;;;;;;16.05;91.47;99598.66;107667;276;121326;-61
2023/10/14 00:16:54;;;;;;;10.50;6.90;;;;;;;16.06;91.41;99596.23;107658;276;105549;-56
2023/10/14 00:19:32;;;;;;;13.10;6.60;;;;;;;16.01;91.41;99592.43;107689;276;114062;-56
2023/10/14 00:22:17;;;;;;;11.70;6.90;;;;;;;16.02;91.47;99588.96;107722;276;96383;-59
2023/10/14 00:25:01;;;;;;;13.90;7.00;;;;;;;16.01;91.43;99581.97;107713;276;95999;-60
2023/10/14 00:27:50;;;;;;;11.90;6.50;;;;;;;15.99;91.25;99577.20;107658;276;120652;-56
2023/10/14 00:30:31;;;;;;;12.90;7.00;;;;;;;15.93;91.32;99576.00;107728;276;104957;-56
2023/10/14 00:33:12;;;;;;;11.10;7.30;;;;;;;15.91;91.36;99574.33;107460;276;114360;-57
2023/10/14 00:35:54;;;;;;;9.40;6.60;;;;;;;15.91;91.25;99573.89;107733;276;96447;-56
2023/10/14 00:38:35;;;;;;;12.90;7.90;;;;;;;15.91;91.26;99572.75;107627;276;97003;-56
2023/10/14 00:41:09;;;;;;;11.20;6.80;;;;;;;15.90;91.22;99569.13;107643;276;120165;-60
2023/10/14 00:43:43;;;;;;;16.30;7.40;;;;;;;15.91;91.30;99571.49;107688;276;103905;-60
2023/10/14 00:46:23;;;;;;;11.10;6.60;;;;;;;15.91;91.44;99564.84;107649;276;114376;-59
2023/10/14 00:49:04;;;;;;;11.30;6.60;;;;;;;15.89;91.24;99565.96;107613;276;97329;-59
2023/10/14 00:51:43;;;;;;;12.90;7.40;;;;;;;15.89;91.34;99561.54;107682;276;97614;-59
2023/10/14 00:54:27;;;;;;;12.50;6.90;;;;;;;15.90;91.33;99564.45;107617;276;121028;-59
2023/10/14 00:57:14;;;;;;;11.10;6.90;;;;;;;15.90;91.30;99560.63;107553;276;105118;-59
2023/10/14 00:59:53;;;;;;;10.90;6.60;;;;;;;15.86;91.21;99556.52;107622;276;113428;-59
2023/10/14 01:02:30;;;;;;;13.20;7.20;;;;;;;15.87;91.05;99552.41;107651;276;97233;-59
2023/10/14 01:05:09;;;;;;;12.70;7.50;;;;;;;15.84;91.01;99550.66;107703;276;96546;-59
2023/10/14 01:07:57;;;;;;;12.00;7.00;;;;;;;15.84;91.06;99545.20;107662;276;120303;-60
2023/10/14 01:10:38;;;;;;;11.10;7.20;;;;;;;15.84;91.14;99542.66;107705;276;104486;-59
2023/10/14 01:13:23;;;;;;;13.40;8.10;;;;;;;15.84;91.10;99536.55;107661;276;114955;-61
2023/10/14 01:16:03;;;;;;;11.90;7.00;;;;;;;15.82;91.08;99536.25;107716;276;96443;-59
2023/10/14 01:18:39;;;;;;;11.40;7.50;;;;;;;15.83;90.98;99531.52;107561;276;96857;-60
2023/10/14 01:21:14;;;;;;;13.80;7.60;;;;;;;15.82;90.98;99526.77;107666;276;121608;-60
2023/10/14 01:24:02;;;;;;;11.20;6.70;;;;;;;15.80;90.80;99521.77;107690;276;105038;-58
2023/10/14 01:26:51;;;;;;;13.80;6.20;;;;;;;15.77;90.76;99511.58;107694;276;113067;-61
2023/10/14 01:29:32;;;;;;;12.40;7.00;;;;;;;15.75;90.75;99510.40;107707;276;96644;-61
2023/10/14 01:32:36;;;;;;;14.30;7.50;;;;;;;15.76;90.84;99508.63;107693;276;97922;-60
2023/10/14 01:35:26;;;;;;;11.60;7.60;;;;;;;15.73;90.63;99505.97;107626;276;119307;-58
2023/10/14 01:38:02;;;;;;;12.90;6.50;;;;;;;15.70;90.59;99507.05;107696;276;105602;-55
2023/10/14 01:40:40;;;;;;;11.00;7.20;;;;;;;15.66;90.48;99505.33;107708;276;114481;-56
2023/10/14 01:43:25;;;;;;;9.40;6.40;;;;;;;15.66;90.70;99504.66;107597;276;96694;-57
2023/10/14 01:46:08;;;;;;;10.50;6.80;;;;;;;15.64;90.43;99496.91;107664;276;96644;-57
2023/10/14 01:48:52;;;;;;;12.30;6.70;;;;;;;15.63;90.57;99493.24;107681;276;121260;-57
2023/10/14 01:51:33;;;;;;;11.70;6.90;;;;;;;15.65;90.53;99486.08;107641;276;106188;-60
2023/10/14 01:54:22;;;;;;;11.20;6.40;;;;;;;15.64;90.50;99484.89;107702;276;113889;-59
2023/10/14 01:57:00;;;;;;;12.40;6.90;;;;;;;15.64;90.38;99479.58;107792;276;96712;-57
2023/10/14 01:59:36;;;;;;;10.50;6.60;;;;;;;15.64;90.26;99472.56;107742;276;96301;-57
2023/10/14 02:02:12;;;;;;;;;;;;;;;15.65;90.29;99467.14;107738;276;118642;-59
2023/10/14 02:04:56;;;;;;;10.20;6.30;;;;;;;15.65;90.13;99461.90;107714;276;105733;-59
2023/10/14 02:07:35;;;;;;;9.30;6.20;;;;;;;15.66;90.20;99461.38;107678;276;114340;-60
2023/10/14 02:10:15;;;;;;;11.10;6.50;;;;;;;15.67;90.09;99459.27;107696;276;97230;-60
2023/10/14 02:12:53;;;;;;;12.20;6.50;;;;;;;15.68;90.02;99453.60;107655;276;98469;-56
2023/10/14 02:15:37;;;;;;;11.80;6.60;;;;;;;15.67;89.96;99453.56;107618;276;121308;-56
2023/10/14 02:18:21;;;;;;;13.50;7.30;;;;;;;15.68;89.85;99448.85;107618;276;106171;-60
2023/10/14 02:21:11;;;;;;;15.50;7.80;;;;;;;15.66;89.69;99447.66;107572;276;115497;-56
2023/10/14 02:24:04;;;;;;;11.10;7.20;;;;;;;15.63;89.60;99442.45;107580;276;94648;-56
2023/10/14 02:26:43;;;;;;;12.00;6.40;;;;;;;15.63;89.56;99438.13;108109;276;98149;-59
2023/10/14 02:29:24;;;;;;;13.70;7.90;;;;;;;15.60;89.42;99434.16;107645;276;120850;-60
2023/10/14 02:32:03;;;;;;;14.70;6.70;;;;;;;15.62;89.38;99435.29;107658;276;106113;-59
2023/10/14 02:34:40;;;;;;;13.60;7.10;;;;;;;15.61;89.25;99434.73;107641;276;116088;-59
2023/10/14 02:37:22;;;;;;;12.80;6.70;;;;;;;15.63;89.23;99429.20;107511;276;98426;-61
2023/10/14 02:40:17;;;;;;;10.50;6.00;;;;;;;15.64;89.08;99423.89;107635;276;98565;-60
2023/10/14 02:42:57;;;;;;;9.30;6.20;;;;;;;15.62;88.98;99418.45;107653;276;120358;-60
2023/10/14 02:45:45;;;;;;;11.90;6.10;;;;;;;15.59;88.98;99416.51;107649;276;105961;-60
2023/10/14 02:48:22;;;;;;;15.70;7.10;;;;;;;15.57;88.94;99417.23;107146;276;566756;-60
2023/10/14 02:51:06;;;;;;;10.90;6.30;;;;;;;15.53;88.85;99414.75;107562;276;96735;-55
2023/10/14 02:53:46;;;;;;;14.00;6.60;;;;;;;15.51;88.76;99411.73;107629;276;95943;-55
2023/10/14 02:56:44;;;;;;;11.10;6.70;;;;;;;15.57;88.75;99406.01;107663;276;121034;-55
2023/10/14 02:59:19;;;;;;;;;;;;;;;15.60;88.71;99399.80;107624;276;106952;-55
2023/10/14 03:02:14;;;;;;;14.40;6.70;;;;;;;15.64;88.70;99404.16;107546;276;114174;-56
2023/10/14 03:05:13;;;;;;;10.50;6.40;;;;;;;15.67;88.50;99398.58;107626;276;96025;-56
2023/10/14 03:07:55;;;;;;;13.80;7.20;;;;;;;15.64;88.22;99390.83;107640;276;96786;-58
2023/10/14 03:10:39;;;;;;;11.40;6.80;;;;;;;15.62;88.10;99378.83;107665;276;121491;-59
2023/10/14 03:13:22;;;;;;;11.30;6.30;;;;;;;15.59;88.02;99376.05;107664;276;104508;-59
2023/10/14 03:16:04;;;;;;;11.70;6.00;;;;;;;15.59;87.98;99367.02;107650;276;113708;-61
2023/10/14 03:18:47;;;;;;;11.50;6.20;;;;;;;15.61;87.91;99361.60;107626;276;96706;-60
2023/10/14 03:21:32;;;;;;;10.90;6.10;;;;;;;15.63;87.73;99354.43;107617;276;98161;-59
2023/10/14 03:24:20;;;;;;;15.00;7.90;;;;;;;15.65;87.65;99354.77;107646;276;120988;-59
2023/10/14 03:27:04;;;;;;;14.50;7.20;;;;;;;15.67;87.41;99350.04;107667;276;104523;-55
2023/10/14 03:29:54;;;;;;;10.40;6.50;;;;;;;15.68;87.37;99341.41;107637;276;115761;-56
2023/10/14 03:32:33;;;;;;;11.40;6.10;;;;;;;15.68;87.13;99334.12;107718;276;93253;-55
2023/10/14 03:35:20;;;;;;;11.00;6.90;;;;;;;15.65;87.04;99327.36;107651;276;98315;-56
2023/10/14 03:38:15;;;;;;;11.90;6.40;;;;;;;15.63;86.83;99321.23;107628;276;119908;-59
2023/10/14 03:41:04;;;;;;;14.40;7.10;;;;;;;15.61;86.76;99315.86;107689;276;105412;-56
2023/10/14 03:43:54;;;;;;;10.70;6.50;;;;;;;15.62;86.74;99308.73;107651;276;114360;-56
2023/10/14 03:46:32;;;;;;;10.70;5.80;;;;;;;15.61;86.72;99302.51;107645;276;96773;-60
2023/10/14 03:49:11;;;;;;;11.40;5.30;;;;;;;15.65;86.38;99293.91;107691;276;97463;-60
2023/10/14 03:51:54;;;;;;;12.30;5.80;;;;;;;15.71;85.93;99287.70;107637;276;121421;-59
2023/10/14 03:54:41;;;;;;;13.00;6.80;;;;;;;15.78;85.99;99275.55;107653;276;105899;-59
2023/10/14 03:57:20;;;;;;;9.20;5.40;;;;;;;15.80;85.79;99270.63;107656;276;115481;-61
2023/10/14 04:00:12;;;;;;;12.50;6.30;;;;;;;15.81;85.63;99273.33;107715;276;94501;-60
2023/10/14 04:02:49;;;;;;;15.10;6.20;;;;;;;15.81;85.40;99270.69;107718;276;96256;-61
2023/10/14 04:05:29;;;;;;;8.30;6.10;;;;;;;15.80;85.28;99273.18;107694;276;118473;-61
2023/10/14 04:08:08;;;;;;;12.70;6.20;;;;;;;15.80;85.08;99269.91;107639;276;105118;-56
2023/10/14 04:10:54;;;;;;;12.60;6.50;;;;;;;15.84;84.87;99260.76;107675;276;113115;-59
2023/10/14 04:13:34;;;;;;;11.00;6.20;;;;;;;15.89;84.53;99257.26;107641;276;96321;-59
2023/10/14 04:16:13;;;;;;;10.30;5.80;;;;;;;15.92;84.37;99253.31;107663;276;98084;-56
2023/10/14 04:18:49;;;;;;;13.00;6.60;;;;;;;15.92;84.27;99251.45;107701;276;119356;-56
2023/10/14 04:21:37;;;;;;;12.80;5.40;;;;;;;15.92;84.04;99243.95;107675;276;105894;-58
2023/10/14 04:24:27;;;;;;;16.70;7.00;;;;;;;15.95;83.66;99239.08;107589;276;114702;-59
2023/10/14 04:27:29;;;;;;;13.70;6.50;;;;;;;15.98;83.07;99232.84;107648;276;95480;-61
2023/10/14 04:30:12;;;;;;;10.20;5.40;;;;;;;16.12;82.54;99229.09;107641;276;97978;-60
2023/10/14 04:33:04;;;;;;;10.50;5.50;;;;;;;16.19;82.40;99227.08;107661;276;120426;-59
2023/10/14 04:35:57;;;;;;;13.40;5.50;;;;;;;16.25;81.99;99223.59;107632;276;105258;-60
2023/10/14 04:38:44;;;;;;;11.70;6.50;;;;;;;16.29;81.68;99220.96;107585;276;114301;-61
2023/10/14 04:41:28;;;;;;;12.70;6.30;;;;;;;16.39;80.91;99217.43;107685;276;94561;-57
2023/10/14 04:44:11;;;;;;;12.40;5.60;;;;;;;16.46;80.68;99210.27;107669;276;97218;-57
2023/10/14 04:46:51;;;;;;;10.20;5.20;;;;;;;16.48;80.51;99207.13;107745;276;118572;-56
2023/10/14 04:49:39;;;;;;;7.50;4.70;;;;;;;16.48;80.04;99214.49;107701;276;105097;-56
2023/10/14 04:52:27;;;;;;;10.60;5.40;;;;;;;16.56;79.78;99212.24;107637;276;113719;-59
2023/10/14 04:55:20;;;;;;;9.90;5.10;;;;;;;16.63;79.22;99208.40;107655;276;96654;-63
2023/10/14 04:58:11;;;;;;;10.20;5.50;;;;;;;16.72;78.79;99213.78;107662;276;96094;-60
2023/10/14 05:01:00;;;;;;;9.80;4.90;;;;;;;16.75;78.71;99216.54;107667;276;120606;-58
2023/10/14 05:03:39;;;;;;;11.10;5.80;;;;;;;16.76;78.67;99214.05;107498;276;105385;-55
2023/10/14 05:06:18;;;;;;;11.60;5.40;;;;;;;16.78;78.11;99210.52;107656;276;114515;-60
2023/10/14 05:09:09;;;;;;;10.40;6.00;;;;;;;16.79;78.14;99204.36;107660;276;94327;-59
2023/10/14 05:11:49;;;;;;;13.30;6.10;;;;;;;16.79;78.08;99206.05;107637;276;95411;-59
2023/10/14 05:14:36;;;;;;;10.50;4.70;;;;;;;16.76;78.20;99210.54;107630;276;121106;-59
2023/10/14 05:17:18;;;;;;;10.20;4.80;;;;;;;16.77;78.06;99213.01;107688;276;105407;-55
2023/10/14 05:19:58;;;;;;;13.50;5.20;;;;;;;16.80;78.02;99217.90;107652;276;113662;-56
2023/10/14 05:22:41;;;;;;;11.20;5.10;;;;;;;16.81;77.94;99211.14;107482;276;93176;-56
2023/10/14 05:25:27;;;;;;;9.40;5.50;;;;;;;16.81;77.90;99201.75;107704;276;97270;-59
2023/10/14 05:28:16;;;;;;;12.70;6.30;;;;;;;16.81;77.65;99202.23;107725;276;119943;-61
2023/10/14 05:31:05;;;;;;;13.90;5.50;;;;;;;16.83;77.68;99204.38;107764;276;104104;-61
2023/10/14 05:33:44;;;;;;;9.20;5.40;;;;;;;16.84;77.37;99207.45;107684;276;114487;-59
2023/10/14 05:36:22;;;;;;;11.60;6.00;;;;;;;16.89;77.29;99200.14;107500;277;94224;-55
2023/10/14 05:39:06;;;;;;;11.20;5.50;;;;;;;16.94;77.21;99202.05;107471;277;98274;-55
2023/10/14 05:41:48;;;;;;;;;;;;;;;16.97;77.21;99203.48;107476;277;120049;-55
2023/10/14 05:44:29;;;;;;;9.30;5.50;;;;;;;17.01;77.15;99200.78;107508;277;106149;-55
2023/10/14 05:47:09;;;;;;;12.00;5.60;;;;;;;17.05;77.19;99200.55;107477;277;114207;-57
2023/10/14 05:49:45;;;;;;;9.50;5.90;;;;;;;17.07;76.99;99200.17;107432;277;95058;-57
2023/10/14 05:52:24;;;;;;;11.50;5.50;;;;;;;17.09;76.87;99195.66;107487;277;97460;-59
2023/10/14 05:55:05;;;;;;;10.30;5.90;;;;;;;17.12;76.84;99196.13;107404;277;119673;-59
2023/10/14 05:57:45;;;;;;;14.50;5.30;;;;;;;17.14;76.82;99198.87;107479;277;105633;-55
2023/10/14 06:00:25;;;;;;;10.10;6.30;;;;;;;17.16;76.52;99196.98;107468;277;113325;-56
2023/10/14 06:03:12;;;;;;;12.70;5.20;;;;;;;17.30;76.15;99193.58;107458;277;96552;-62
2023/10/14 06:05:53;;;;;;;9.70;5.70;;;;;;;17.49;76.16;99188.91;107488;277;97568;-60
2023/10/14 06:08:35;;;;;;;12.30;5.00;;;;;;;17.58;75.97;99191.79;107510;277;121071;-60
2023/10/14 06:11:17;;;;;;;12.20;5.00;;;;;;;17.64;75.59;99191.88;107455;277;105220;-59
2023/10/14 06:13:57;;;;;;;11.20;5.10;;;;;;;17.71;75.33;99199.45;107523;277;112320;-59
2023/10/14 06:16:36;;;;;;;12.40;6.40;;;;;;;17.74;75.17;99201.88;107480;277;94353;-62
2023/10/14 06:19:18;;;;;;;9.40;5.50;;;;;;;17.76;75.13;99200.73;107529;277;96557;-62
2023/10/14 06:21:56;;;;;;;10.50;5.60;;;;;;;17.77;75.10;99203.26;107524;277;120662;-62
2023/10/14 06:24:38;;;;;;;10.70;5.50;;;;;;;17.77;75.02;99204.85;107481;277;103630;-63
2023/10/14 06:27:22;;;;;;;14.10;6.10;;;;;;;17.80;75.16;99198.73;107444;277;114999;-59
2023/10/14 06:29:58;;;;;;;14.80;7.10;;;;;;;17.83;74.78;99201.22;107455;277;96899;-59
2023/10/14 06:32:32;;;;;;;12.80;6.60;;;;;;;17.86;74.82;99205.27;107516;277;97145;-59
2023/10/14 06:35:08;;;;;;;10.30;5.40;;;;;;;17.90;74.75;99204.09;107548;276;120520;-59
2023/10/14 06:37:46;;;;;;;11.20;5.80;;;;;;;17.97;74.62;99206.20;107717;276;105199;-64
2023/10/14 06:40:35;;;;;;;12.40;5.80;;;;;;;18.02;74.44;99210.98;107664;276;114554;-64
2023/10/14 06:43:17;;;;;;;10.70;6.10;;;;;;;18.09;74.25;99216.36;107637;276;92307;-62
2023/10/14 06:46:00;;;;;;;11.80;6.10;;;;;;;18.14;73.60;99213.77;107489;276;97850;-60
2023/10/14 06:48:38;;;;;;;10.70;6.20;;;;;;;18.22;73.53;99209.36;107670;276;119928;-61
2023/10/14 06:51:19;;;;;;;10.30;5.90;;;;;;;18.28;73.75;99209.06;107668;276;104089;-63
2023/10/14 06:53:59;;;;;;;12.20;8.00;;;;;;;18.31;73.31;99210.23;107713;276;114200;-64
2023/10/14 06:56:37;;;;;;;11.00;5.60;;;;;;;18.34;73.36;99206.89;107723;276;94980;-59
2023/10/14 06:59:19;;;;;;;11.30;5.90;;;;;;;18.39;73.53;99203.13;107531;276;98139;-59
2023/10/14 07:01:56;;;;;;;12.30;6.00;;;;;;;18.45;73.31;99203.09;107687;276;119754;-63
2023/10/14 07:04:40;;;;;;;13.00;6.70;;;;;;;18.51;73.19;99202.20;107721;276;105803;-64
2023/10/14 07:07:19;;;;;;;;;;;;;;;18.58;72.52;99201.09;107657;276;114983;-59
2023/10/14 07:10:01;;;;;;;11.50;5.90;;;;;;;18.68;72.35;99200.17;107679;276;93918;-58
2023/10/14 07:12:41;;;;;;;9.90;5.90;;;;;;;18.83;71.80;99195.37;107702;276;98640;-63
2023/10/14 07:15:19;;;;;;;10.10;5.80;;;;;;;18.97;72.10;99192.10;107599;276;119575;-63
2023/10/14 07:17:59;;;;;;;11.20;6.00;;;;;;;19.18;72.38;99194.07;107708;276;105056;-63
2023/10/14 07:20:39;;;;;;;11.80;6.50;;;;;;;19.53;72.22;99188.05;107674;276;113600;-60
2023/10/14 07:23:17;;;;;;;11.00;5.80;;;;;;;19.60;71.75;99184.91;107492;276;92992;-59
2023/10/14 07:25:58;;;;;;;10.30;5.80;;;;;;;19.75;71.91;99181.40;107664;276;95546;-64
2023/10/14 07:28:36;;;;;;;;;;;;;;;19.99;71.50;99184.56;107499;276;120199;-63
2023/10/14 07:31:23;;;;;;;14.50;7.30;;;;;;;20.20;70.91;99179.21;107677;276;105074;-59
2023/10/14 07:34:08;;;;;;;11.60;5.40;;;;;;;20.48;70.24;99172.02;107662;276;115660;-57
2023/10/14 07:36:46;;;;;;;8.10;5.50;;;;;;;20.82;70.42;99169.90;107473;276;94150;-60
2023/10/14 07:39:29;;;;;;;9.30;5.50;;;;;;;21.57;69.55;99164.19;107535;276;97120;-60
2023/10/14 07:42:14;;;;;;;10.40;6.60;;;;;;;23.18;68.53;99163.48;107665;276;120140;-59
2023/10/14 07:44:59;;;;;;;10.40;6.00;;;;;;;25.10;65.89;99146.90;107689;276;106729;-60
2023/10/14 07:47:43;;;;;;;11.10;5.70;;;;;;;26.38;64.04;99146.92;107702;276;112758;-61
2023/10/14 07:50:19;;;;;;;11.10;6.20;;;;;;;27.57;61.69;99150.56;107635;276;94907;-60
2023/10/14 07:53:07;;;;;;;11.70;7.00;;;;;;;28.65;59.99;99135.66;107525;276;99708;-56
2023/10/14 07:55:48;;;;;;;11.50;6.10;;;;;;;28.81;57.08;99140.80;107662;276;122047;-56
2023/10/14 07:58:27;;;;;;;9.90;6.40;;;;;;;27.85;56.15;99141.20;107663;276;105253;-56
2023/10/14 08:01:06;;;;;;;10.90;6.30;;;;;;;26.93;55.12;99141.92;107661;276;113546;-56
2023/10/14 08:03:57;;;;;;;10.50;6.30;;;;;;;26.23;55.62;99148.48;107606;276;95023;-56
2023/10/14 08:06:41;;;;;;;10.10;6.50;;;;;;;25.78;54.50;99135.45;107684;276;96703;-56
2023/10/14 08:09:25;;;;;;;9.20;6.30;;;;;;;25.44;55.29;99135.50;107669;276;119490;-56
2023/10/14 08:12:14;;;;;;;14.40;6.80;;;;;;;25.08;55.53;99130.79;107683;276;105115;-61
2023/10/14 08:14:54;;;;;;;11.40;6.60;;;;;;;24.72;55.39;99129.67;107615;276;111979;-60
2023/10/14 08:17:31;;;;;;;9.40;6.50;;;;;;;24.41;55.54;99123.15;107671;276;94271;-57
2023/10/14 08:20:22;;;;;;;14.60;6.90;;;;;;;24.14;55.48;99125.74;107668;276;96554;-54
2023/10/14 08:23:09;;;;;;;13.40;6.30;;;;;;;23.88;54.75;99120.91;107656;276;119992;-56
2023/10/14 08:25:53;;;;;;;10.90;6.10;;;;;;;23.70;55.27;99118.98;107702;276;103996;-56
2023/10/14 08:28:40;;;;;;;12.00;5.90;;;;;;;23.60;55.87;99132.73;107652;276;114843;-56
2023/10/14 08:31:26;;;;;;;10.30;6.40;;;;;;;23.49;56.22;99136.14;107673;276;94325;-56
2023/10/14 08:34:03;;;;;;;11.50;6.70;;;;;;;23.45;56.17;99127.67;107678;276;96650;-60
2023/10/14 08:36:49;;;;;;;10.90;6.40;;;;;;;23.47;55.67;99122.67;107663;276;121265;-58
2023/10/14 08:39:31;;;;;;;13.60;6.60;;;;;;;23.63;55.17;99123.97;107683;276;105166;-58
2023/10/14 08:42:09;;;;;;;11.60;6.60;;;;;;;23.75;55.74;99121.45;107709;276;114116;-55
2023/10/14 08:44:50;;;;;;;10.60;6.00;;;;;;;23.82;55.66;99122.91;107623;276;95157;-59
2023/10/14 08:47:26;;;;;;;13.30;6.70;;;;;;;23.97;55.08;99121.95;107666;276;97231;-54
2023/10/14 08:50:02;;;;;;;13.00;6.60;;;;;;;24.34;55.79;99128.00;107661;276;119955;-55
2023/10/14 08:52:39;;;;;;;11.20;7.00;;;;;;;24.57;55.06;99134.71;107722;276;103790;-54
2023/10/14 08:55:28;;;;;;;13.10;7.20;;;;;;;24.31;54.12;99133.21;107492;276;115423;-54
2023/10/14 08:58:13;;;;;;;13.80;7.50;;;;;;;24.15;55.18;99136.71;107681;276;94789;-57
2023/10/14 09:00:57;;;;;;;11.70;6.50;;;;;;;24.07;55.19;99143.16;107687;276;98410;-58
2023/10/14 09:03:41;;;;;;;13.40;7.20;;;;;;;23.88;55.08;99142.59;107696;276;121147;-59
2023/10/14 09:06:26;;;;;;;12.00;6.70;;;;;;;23.73;55.13;99150.29;107736;276;106329;-55
2023/10/14 09:09:23;;;;;;;12.00;6.90;;;;;;;23.69;55.34;99151.60;107695;276;114268;-56
2023/10/14 09:12:10;;;;;;;12.40;6.80;;;;;;;23.66;55.41;99151.14;107685;276;94308;-60
2023/10/14 09:14:50;;;;;;;11.50;6.90;;;;;;;23.60;55.51;99148.95;107576;276;99963;-61
2023/10/14 09:17:31;;;;;;;12.50;6.60;;;;;;;23.54;56.13;99156.45;107674;276;121128;-56
2023/10/14 09:20:08;;;;;;;10.70;7.50;;;;;;;23.56;55.94;99156.81;107710;276;104789;-56
2023/10/14 09:22:50;;;;;;;11.30;6.80;;;;;;;23.41;56.14;99158.60;107642;276;114244;-56
2023/10/14 09:25:30;;;;;;;;;;;;;;;23.30;56.09;99158.12;107669;276;92797;-56
2023/10/14 09:28:09;;;;;;;11.50;6.60;;;;;;;23.24;56.30;99164.80;107507;276;98033;-58
2023/10/14 09:30:49;;;;;;;16.10;7.30;;;;;;;23.07;56.30;99168.45;107683;276;119283;-62
2023/10/14 09:33:38;;;;;;;11.40;7.30;;;;;;;22.81;56.36;99168.59;107643;276;105781;-62
2023/10/14 09:36:14;;;;;;;12.00;6.90;;;;;;;22.65;56.79;99176.26;107613;276;114179;-58
2023/10/14 09:38:52;;;;;;;15.70;7.50;;;;;;;22.48;57.18;99178.75;107695;276;95761;-59
2023/10/14 09:41:30;;;;;;;11.80;7.10;;;;;;;22.41;57.66;99169.82;107659;276;97979;-59
2023/10/14 09:44:10;;;;;;;14.30;7.40;;;;;;;22.37;57.97;99171.47;107671;276;120198;-59
2023/10/14 09:46:45;;;;;;;11.90;7.00;;;;;;;22.35;58.09;99168.69;107664;276;106013;-59
2023/10/14 09:49:25;;;;;;;10.00;6.60;;;;;;;22.32;58.20;99168.67;107653;276;116047;-59
2023/10/14 09:52:04;;;;;;;12.40;7.00;;;;;;;22.19;58.46;99168.40;107656;276;95260;-58
2023/10/14 09:54:49;;;;;;;10.80;7.20;;;;;;;22.19;58.72;99166.16;107750;276;97459;-59
2023/10/14 09:57:31;;;;;;;9.80;7.00;;;;;;;22.18;58.69;99166.05;107861;276;121218;-62
2023/10/14 10:00:10;;;;;;;15.80;7.40;;;;;;;22.19;58.88;99164.67;107906;276;105224;-63
2023/10/14 10:02:50;;;;;;;15.20;7.70;;;;;;;22.19;59.06;99158.07;107557;276;114635;-58
2023/10/14 10:05:39;;;;;;;10.40;6.70;;;;;;;22.16;59.07;99154.90;107610;276;94229;-57
2023/10/14 10:08:59;;;;;;;9.40;6.30;;;;;;;22.15;58.90;99157.29;107656;276;96058;-61
2023/10/14 10:11:41;;;;;;;11.20;7.20;;;;;;;22.09;59.03;99156.36;107673;276;120958;-59
2023/10/14 10:14:42;;;;;;;9.50;6.50;;;;;;;22.09;59.60;99142.19;107626;276;104642;-56
2023/10/14 10:17:18;;;;;;;10.20;7.10;;;;;;;22.13;59.86;99150.11;107676;276;114194;-58
2023/10/14 10:20:16;;;;;;;13.60;7.50;;;;;;;22.15;59.63;99158.40;107628;276;94908;-58
2023/10/14 10:23:01;;;;;;;12.00;6.90;;;;;;;22.09;59.49;99154.79;107644;276;97934;-60
2023/10/14 10:25:51;;;;;;;;;;;;;;;21.99;59.57;99155.45;107701;276;120396;-61
2023/10/14 10:28:45;;;;;;;11.60;6.60;;;;;;;21.85;59.63;99153.24;107501;276;105675;-63
2023/10/14 10:31:24;;;;;;;13.10;7.00;;;;;;;21.79;59.76;99154.13;107682;276;114494;-61
2023/10/14 10:34:02;;;;;;;12.90;6.00;;;;;;;21.74;59.45;99152.95;107668;276;94740;-59
2023/10/14 10:36:41;;;;;;;10.70;6.20;;;;;;;21.64;59.41;99140.77;107772;276;97808;-59
2023/10/14 10:39:28;;;;;;;10.20;6.90;;;;;;;21.63;59.35;99142.76;107736;276;118380;-58
2023/10/14 10:42:10;;;;;;;9.80;5.60;;;;;;;21.68;59.43;99143.30;107795;276;103408;-62
2023/10/14 10:44:54;;;;;;;8.20;5.70;;;;;;;21.73;59.53;99140.81;107765;276;113588;-62
2023/10/14 10:47:46;;;;;;;9.90;5.90;;;;;;;21.82;59.47;99142.82;107719;276;93736;-62
2023/10/14 10:50:34;;;;;;;11.10;7.20;;;;;;;21.83;59.35;99139.63;107117;276;98849;-62
2023/10/14 10:53:25;;;;;;;11.60;6.00;;;;;;;21.80;58.90;99143.66;107618;276;121065;-58
2023/10/14 10:56:05;;;;;;;9.40;5.80;;;;;;;21.77;59.15;99135.89;107651;276;105501;-62
2023/10/14 10:58:50;;;;;;;9.30;5.90;;;;;;;21.77;59.61;99143.54;107659;276;113450;-63
2023/10/14 11:01:33;;;;;;;8.10;5.60;;;;;;;21.83;59.63;99139.84;107796;276;94652;-61
2023/10/14 11:04:09;;;;;;;11.30;6.30;;;;;;;21.87;59.55;99134.96;107758;276;98453;-63
2023/10/14 11:06:44;;;;;;;9.20;5.30;;;;;;;21.86;59.19;99128.98;107714;276;120596;-61
2023/10/14 11:09:21;;;;;;;8.80;5.30;;;;;;;21.80;59.11;99130.41;107711;276;105973;-61
2023/10/14 11:12:03;;;;;;;11.10;6.30;;;;;;;21.77;59.09;99130.73;107651;276;114763;-57
2023/10/14 11:14:48;;;;;;;11.30;6.10;;;;;;;21.70;59.12;99139.17;107641;276;93417;-57
2023/10/14 11:17:32;;;;;;;10.70;5.50;;;;;;;21.62;59.45;99141.52;107748;276;96564;-63
2023/10/14 11:20:14;;;;;;;11.10;5.90;;;;;;;21.55;59.40;99143.02;107753;276;120478;-62
2023/10/14 11:22:55;;;;;;;11.10;5.70;;;;;;;21.49;59.23;99143.35;107712;276;104467;-58
2023/10/14 11:25:42;;;;;;;11.50;6.10;;;;;;;21.49;59.50;99151.55;107552;276;115142;-55
2023/10/14 11:28:23;;;;;;;10.70;6.20;;;;;;;21.51;59.72;99145.63;107714;276;94044;-55
2023/10/14 11:31:00;;;;;;;11.60;5.70;;;;;;;21.56;59.82;99150.58;107744;276;97421;-56
2023/10/14 11:33:44;;;;;;;9.90;6.20;;;;;;;21.59;59.81;99147.80;107639;276;121066;-56
2023/10/14 11:36:27;;;;;;;11.00;5.50;;;;;;;21.64;59.90;99154.47;107674;276;105075;-57
2023/10/14 11:39:13;;;;;;;12.70;6.50;;;;;;;21.62;59.55;99156.45;107517;276;114638;-57
2023/10/14 11:41:51;;;;;;;12.80;6.00;;;;;;;21.58;59.33;99151.95;107660;276;94889;-62
2023/10/14 11:44:38;;;;;;;9.20;5.90;;;;;;;21.55;59.51;99151.14;107660;276;97913;-60
2023/10/14 11:47:19;;;;;;;9.50;4.90;;;;;;;21.54;59.69;99156.15;107596;276;121162;-55
2023/10/14 11:49:58;;;;;;;13.60;6.10;;;;;;;21.52;59.71;99160.48;107670;276;104681;-56
2023/10/14 11:52:43;;;;;;;10.90;6.90;;;;;;;21.52;59.68;99155.25;107606;276;115370;-55
2023/10/14 11:55:20;;;;;;;9.80;5.70;;;;;;;21.51;59.44;99150.86;107498;276;95095;-55
2023/10/14 11:57:58;;;;;;;9.60;5.80;;;;;;;21.48;59.61;99152.15;107580;276;96890;-59
2023/10/14 12:00:41;;;;;;;11.20;5.50;;;;;;;21.48;59.74;99154.30;107640;276;121540;-59
2023/10/14 12:03:32;;;;;;;10.40;5.80;;;;;;;21.49;59.79;99156.54;107665;276;106139;-59
2023/10/14 12:06:12;;;;;;;8.60;5.20;;;;;;;21.48;59.58;99161.55;107715;276;113894;-59
2023/10/14 12:08:55;;;;;;;8.90;4.90;;;;;;;21.42;59.48;99165.03;107729;276;93565;-59
2023/10/14 12:11:41;;;;;;;11.00;5.60;;;;;;;21.40;59.67;99170.05;107708;276;98369;-55
2023/10/14 12:14:22;;;;;;;10.30;5.90;;;;;;;21.38;59.78;99169.63;107729;276;121462;-56
2023/10/14 12:16:56;;;;;;;9.80;5.90;;;;;;;21.37;59.56;99163.81;107674;276;105203;-57
2023/10/14 12:19:37;;;;;;;11.40;5.00;;;;;;;21.38;59.56;99166.66;107676;276;113973;-55
2023/10/14 12:22:17;;;;;;;8.90;4.80;;;;;;;21.39;59.65;99172.52;107666;276;94158;-59
2023/10/14 12:24:56;;;;;;;8.30;4.70;;;;;;;21.41;59.58;99172.30;107668;276;98114;-59
2023/10/14 12:27:34;;;;;;;9.50;5.60;;;;;;;21.43;59.32;99175.77;107520;276;123138;-59
2023/10/14 12:30:35;;;;;;;10.50;5.20;;;;;;;21.46;59.42;99178.89;107644;276;104764;-59
2023/10/14 12:33:24;;;;;;;12.10;5.30;;;;;;;21.49;59.58;99180.34;107639;276;114373;-58
2023/10/14 12:36:08;;;;;;;8.60;5.00;;;;;;;21.52;59.48;99175.09;107584;276;95249;-61